sensor_id;sensor_type;location;lat;lon;timestamp;temperature;humidity
4635;DHT22;2330;48.158;11.816;2023-12-20T00:02:01;5.40;98.50
4635;DHT22;2330;48.158;11.816;2023-12-20T00:04:29;5.20;98.50
4635;DHT22;2330;48.158;11.816;2023-12-20T00:06:56;5.20;98.50
4635;DHT22;2330;48.158;11.816;2023-12-20T00:09:23;5.20;98.50
4635;DHT22;2330;48.158;11.816;2023-12-20T00:11:49;5.10;98.50
4635;DHT22;2330;48.158;11.816;2023-12-20T00:14:16;5.00;98.50
4635;DHT22;2330;48.158;11.816;2023-12-20T00:16:43;5.00;98.50
4635;DHT22;2330;48.158;11.816;2023-12-20T00:19:10;5.00;98.50
4635;DHT22;2330;48.158;11.816;2023-12-20T00:21:36;5.00;98.50
4635;DHT22;2330;48.158;11.816;2023-12-20T00:24:04;5.00;98.50
4635;DHT22;2330;48.158;11.816;2023-12-20T00:26:30;5.00;98.50
4635;DHT22;2330;48.158;11.816;2023-12-20T00:28:57;5.10;98.50
4635;DHT22;2330;48.158;11.816;2023-12-20T00:31:24;5.10;98.50
4635;DHT22;2330;48.158;11.816;2023-12-20T00:33:51;5.20;98.50
4635;DHT22;2330;48.158;11.816;2023-12-20T00:36:18;5.30;98.50
4635;DHT22;2330;48.158;11.816;2023-12-20T00:38:44;5.30;98.50
4635;DHT22;2330;48.158;11.816;2023-12-20T00:41:11;5.40;98.50
4635;DHT22;2330;48.158;11.816;2023-12-20T00:43:38;5.50;98.50
4635;DHT22;2330;48.158;11.816;2023-12-20T00:46:05;5.60;98.50
4635;DHT22;2330;48.158;11.816;2023-12-20T00:48:32;5.60;98.50
4635;DHT22;2330;48.158;11.816;2023-12-20T00:50:59;5.70;98.50
4635;DHT22;2330;48.158;11.816;2023-12-20T00:53:25;5.60;98.50
4635;DHT22;2330;48.158;11.816;2023-12-20T00:55:52;5.60;98.50
4635;DHT22;2330;48.158;11.816;2023-12-20T00:58:19;5.60;98.50
4635;DHT22;2330;48.158;11.816;2023-12-20T01:00:46;5.70;98.50
4635;DHT22;2330;48.158;11.816;2023-12-20T01:03:13;5.70;98.50
4635;DHT22;2330;48.158;11.816;2023-12-20T01:05:41;5.70;98.50
4635;DHT22;2330;48.158;11.816;2023-12-20T01:08:08;5.80;98.00
4635;DHT22;2330;48.158;11.816;2023-12-20T01:10:34;5.70;98.00
4635;DHT22;2330;48.158;11.816;2023-12-20T01:13:01;5.70;97.50
4635;DHT22;2330;48.158;11.816;2023-12-20T01:15:28;5.80;97.20
4635;DHT22;2330;48.158;11.816;2023-12-20T01:17:55;5.80;96.30
4635;DHT22;2330;48.158;11.816;2023-12-20T01:20:23;5.90;95.70
4635;DHT22;2330;48.158;11.816;2023-12-20T01:22:50;5.80;95.70
4635;DHT22;2330;48.158;11.816;2023-12-20T01:25:17;5.80;96.00
4635;DHT22;2330;48.158;11.816;2023-12-20T01:27:44;5.70;95.90
4635;DHT22;2330;48.158;11.816;2023-12-20T01:30:12;5.70;95.80
4635;DHT22;2330;48.158;11.816;2023-12-20T01:32:39;5.80;95.90
4635;DHT22;2330;48.158;11.816;2023-12-20T01:35:05;5.80;96.10
4635;DHT22;2330;48.158;11.816;2023-12-20T01:37:33;5.60;97.00
4635;DHT22;2330;48.158;11.816;2023-12-20T01:39:59;5.60;97.00
4635;DHT22;2330;48.158;11.816;2023-12-20T01:42:26;5.70;96.20
4635;DHT22;2330;48.158;11.816;2023-12-20T01:44:53;5.80;96.20
4635;DHT22;2330;48.158;11.816;2023-12-20T01:47:20;5.80;96.30
4635;DHT22;2330;48.158;11.816;2023-12-20T01:49:49;5.70;96.30
4635;DHT22;2330;48.158;11.816;2023-12-20T01:52:16;5.70;96.30
4635;DHT22;2330;48.158;11.816;2023-12-20T01:54:44;5.60;96.80
4635;DHT22;2330;48.158;11.816;2023-12-20T01:57:11;5.60;97.40
4635;DHT22;2330;48.158;11.816;2023-12-20T01:59:39;5.60;97.70
4635;DHT22;2330;48.158;11.816;2023-12-20T02:02:07;5.50;98.10
4635;DHT22;2330;48.158;11.816;2023-12-20T02:04:35;5.50;98.50
4635;DHT22;2330;48.158;11.816;2023-12-20T02:07:02;5.50;98.50
4635;DHT22;2330;48.158;11.816;2023-12-20T02:09:30;5.50;98.50
4635;DHT22;2330;48.158;11.816;2023-12-20T02:11:56;5.50;98.50
4635;DHT22;2330;48.158;11.816;2023-12-20T02:14:23;5.40;98.50
4635;DHT22;2330;48.158;11.816;2023-12-20T02:16:50;5.30;98.50
4635;DHT22;2330;48.158;11.816;2023-12-20T02:19:17;5.40;98.50
4635;DHT22;2330;48.158;11.816;2023-12-20T02:21:45;5.40;98.50
4635;DHT22;2330;48.158;11.816;2023-12-20T02:24:12;5.30;98.50
4635;DHT22;2330;48.158;11.816;2023-12-20T02:26:39;5.20;98.50
4635;DHT22;2330;48.158;11.816;2023-12-20T02:29:11;5.20;98.50
4635;DHT22;2330;48.158;11.816;2023-12-20T02:31:37;5.20;98.50
4635;DHT22;2330;48.158;11.816;2023-12-20T02:34:04;5.10;98.50
4635;DHT22;2330;48.158;11.816;2023-12-20T02:36:31;5.00;98.50
4635;DHT22;2330;48.158;11.816;2023-12-20T02:38:58;4.90;98.50
4635;DHT22;2330;48.158;11.816;2023-12-20T02:41:25;5.00;98.50
4635;DHT22;2330;48.158;11.816;2023-12-20T02:43:52;5.10;98.50
4635;DHT22;2330;48.158;11.816;2023-12-20T02:46:18;5.10;98.50
4635;DHT22;2330;48.158;11.816;2023-12-20T02:48:45;5.10;98.50
4635;DHT22;2330;48.158;11.816;2023-12-20T02:51:14;5.10;98.50
4635;DHT22;2330;48.158;11.816;2023-12-20T02:53:41;5.10;98.50
4635;DHT22;2330;48.158;11.816;2023-12-20T02:56:07;5.20;98.50
4635;DHT22;2330;48.158;11.816;2023-12-20T02:58:34;5.30;98.50
4635;DHT22;2330;48.158;11.816;2023-12-20T03:01:01;5.50;98.50
4635;DHT22;2330;48.158;11.816;2023-12-20T03:03:28;5.60;98.50
4635;DHT22;2330;48.158;11.816;2023-12-20T03:05:55;5.60;98.50
4635;DHT22;2330;48.158;11.816;2023-12-20T03:08:22;5.70;98.50
4635;DHT22;2330;48.158;11.816;2023-12-20T03:10:49;5.90;98.50
4635;DHT22;2330;48.158;11.816;2023-12-20T03:13:16;5.90;98.50
4635;DHT22;2330;48.158;11.816;2023-12-20T03:15:43;5.90;98.50
4635;DHT22;2330;48.158;11.816;2023-12-20T03:18:10;5.80;98.50
4635;DHT22;2330;48.158;11.816;2023-12-20T03:20:37;5.80;98.50
4635;DHT22;2330;48.158;11.816;2023-12-20T03:23:04;5.80;98.50
4635;DHT22;2330;48.158;11.816;2023-12-20T03:25:30;5.80;98.50
4635;DHT22;2330;48.158;11.816;2023-12-20T03:27:57;5.70;98.50
4635;DHT22;2330;48.158;11.816;2023-12-20T03:30:24;5.80;98.50
4635;DHT22;2330;48.158;11.816;2023-12-20T03:32:51;5.80;98.50
4635;DHT22;2330;48.158;11.816;2023-12-20T03:35:18;5.90;98.50
4635;DHT22;2330;48.158;11.816;2023-12-20T03:37:45;6.00;98.50
4635;DHT22;2330;48.158;11.816;2023-12-20T03:40:12;6.10;98.50
4635;DHT22;2330;48.158;11.816;2023-12-20T03:42:39;6.10;98.50
4635;DHT22;2330;48.158;11.816;2023-12-20T03:45:06;6.20;98.50
4635;DHT22;2330;48.158;11.816;2023-12-20T03:47:33;6.20;98.50
4635;DHT22;2330;48.158;11.816;2023-12-20T03:50:00;6.30;98.50
4635;DHT22;2330;48.158;11.816;2023-12-20T03:52:27;6.20;98.50
4635;DHT22;2330;48.158;11.816;2023-12-20T03:54:53;6.20;98.50
4635;DHT22;2330;48.158;11.816;2023-12-20T03:57:20;6.20;98.50
4635;DHT22;2330;48.158;11.816;2023-12-20T03:59:47;6.00;98.50
4635;DHT22;2330;48.158;11.816;2023-12-20T04:02:14;6.00;98.50
4635;DHT22;2330;48.158;11.816;2023-12-20T04:04:40;5.90;98.50
4635;DHT22;2330;48.158;11.816;2023-12-20T04:07:08;5.90;98.50
4635;DHT22;2330;48.158;11.816;2023-12-20T04:09:35;5.90;98.50
4635;DHT22;2330;48.158;11.816;2023-12-20T04:12:02;6.00;98.50
4635;DHT22;2330;48.158;11.816;2023-12-20T04:14:29;6.10;98.50
4635;DHT22;2330;48.158;11.816;2023-12-20T04:16:56;6.30;98.50
4635;DHT22;2330;48.158;11.816;2023-12-20T04:19:23;6.40;98.50
4635;DHT22;2330;48.158;11.816;2023-12-20T04:21:50;6.50;98.50
4635;DHT22;2330;48.158;11.816;2023-12-20T04:24:17;6.60;98.50
4635;DHT22;2330;48.158;11.816;2023-12-20T04:26:43;6.50;98.50
4635;DHT22;2330;48.158;11.816;2023-12-20T04:29:10;6.50;98.50
4635;DHT22;2330;48.158;11.816;2023-12-20T04:31:37;6.50;98.50
4635;DHT22;2330;48.158;11.816;2023-12-20T04:34:04;6.60;98.50
4635;DHT22;2330;48.158;11.816;2023-12-20T04:36:31;6.50;98.50
4635;DHT22;2330;48.158;11.816;2023-12-20T04:38:58;6.50;98.50
4635;DHT22;2330;48.158;11.816;2023-12-20T04:41:26;6.50;98.50
4635;DHT22;2330;48.158;11.816;2023-12-20T04:43:54;6.50;98.50
4635;DHT22;2330;48.158;11.816;2023-12-20T04:46:21;6.40;98.50
4635;DHT22;2330;48.158;11.816;2023-12-20T04:48:47;6.40;98.50
4635;DHT22;2330;48.158;11.816;2023-12-20T04:51:15;6.40;98.50
4635;DHT22;2330;48.158;11.816;2023-12-20T04:53:41;6.30;98.50
4635;DHT22;2330;48.158;11.816;2023-12-20T04:56:08;6.40;98.50
4635;DHT22;2330;48.158;11.816;2023-12-20T04:58:35;6.30;98.50
4635;DHT22;2330;48.158;11.816;2023-12-20T05:01:02;6.30;98.50
4635;DHT22;2330;48.158;11.816;2023-12-20T05:03:29;6.30;98.50
4635;DHT22;2330;48.158;11.816;2023-12-20T05:05:56;6.30;98.50
4635;DHT22;2330;48.158;11.816;2023-12-20T05:08:23;6.30;98.50
4635;DHT22;2330;48.158;11.816;2023-12-20T05:10:49;6.20;98.50
4635;DHT22;2330;48.158;11.816;2023-12-20T05:13:16;6.20;98.50
4635;DHT22;2330;48.158;11.816;2023-12-20T05:15:44;6.20;98.50
4635;DHT22;2330;48.158;11.816;2023-12-20T05:18:11;6.20;98.50
4635;DHT22;2330;48.158;11.816;2023-12-20T05:20:38;6.10;98.50
4635;DHT22;2330;48.158;11.816;2023-12-20T05:23:05;6.10;98.50
4635;DHT22;2330;48.158;11.816;2023-12-20T05:25:32;6.00;98.50
4635;DHT22;2330;48.158;11.816;2023-12-20T05:27:59;6.00;98.50
4635;DHT22;2330;48.158;11.816;2023-12-20T05:30:26;5.90;98.50
4635;DHT22;2330;48.158;11.816;2023-12-20T05:32:53;5.80;98.50
4635;DHT22;2330;48.158;11.816;2023-12-20T05:35:20;5.80;98.50
4635;DHT22;2330;48.158;11.816;2023-12-20T05:37:49;5.70;98.50
4635;DHT22;2330;48.158;11.816;2023-12-20T05:40:16;5.60;98.50
4635;DHT22;2330;48.158;11.816;2023-12-20T05:42:43;5.60;98.50
4635;DHT22;2330;48.158;11.816;2023-12-20T05:45:10;5.60;98.50
4635;DHT22;2330;48.158;11.816;2023-12-20T05:47:37;5.60;98.50
4635;DHT22;2330;48.158;11.816;2023-12-20T05:50:04;5.50;98.50
4635;DHT22;2330;48.158;11.816;2023-12-20T05:52:31;5.50;98.50
4635;DHT22;2330;48.158;11.816;2023-12-20T05:54:58;5.40;98.50
4635;DHT22;2330;48.158;11.816;2023-12-20T05:57:28;5.40;98.50
4635;DHT22;2330;48.158;11.816;2023-12-20T05:59:54;5.40;98.50
4635;DHT22;2330;48.158;11.816;2023-12-20T06:02:21;5.40;98.50
4635;DHT22;2330;48.158;11.816;2023-12-20T06:04:48;5.30;98.50
4635;DHT22;2330;48.158;11.816;2023-12-20T06:07:16;5.40;98.50
4635;DHT22;2330;48.158;11.816;2023-12-20T06:09:43;5.40;98.50
4635;DHT22;2330;48.158;11.816;2023-12-20T06:12:09;5.30;98.50
4635;DHT22;2330;48.158;11.816;2023-12-20T06:14:37;5.30;98.50
4635;DHT22;2330;48.158;11.816;2023-12-20T06:17:03;5.30;98.50
4635;DHT22;2330;48.158;11.816;2023-12-20T06:19:30;5.30;98.50
4635;DHT22;2330;48.158;11.816;2023-12-20T06:21:57;5.30;98.50
4635;DHT22;2330;48.158;11.816;2023-12-20T06:24:24;5.30;98.50
4635;DHT22;2330;48.158;11.816;2023-12-20T06:26:54;5.30;98.50
4635;DHT22;2330;48.158;11.816;2023-12-20T06:29:24;5.30;98.50
4635;DHT22;2330;48.158;11.816;2023-12-20T06:31:50;5.20;98.50
4635;DHT22;2330;48.158;11.816;2023-12-20T06:34:17;5.20;98.50
4635;DHT22;2330;48.158;11.816;2023-12-20T06:36:44;5.20;98.50
4635;DHT22;2330;48.158;11.816;2023-12-20T06:39:11;5.10;98.50
4635;DHT22;2330;48.158;11.816;2023-12-20T06:41:39;5.10;98.50
4635;DHT22;2330;48.158;11.816;2023-12-20T06:44:06;5.00;98.50
4635;DHT22;2330;48.158;11.816;2023-12-20T06:46:33;5.00;98.50
4635;DHT22;2330;48.158;11.816;2023-12-20T06:49:00;5.00;98.50
4635;DHT22;2330;48.158;11.816;2023-12-20T06:51:27;5.00;98.50
4635;DHT22;2330;48.158;11.816;2023-12-20T06:53:54;5.00;98.50
4635;DHT22;2330;48.158;11.816;2023-12-20T06:56:21;4.90;98.50
4635;DHT22;2330;48.158;11.816;2023-12-20T06:58:48;4.90;98.50
4635;DHT22;2330;48.158;11.816;2023-12-20T07:01:15;4.80;98.50
4635;DHT22;2330;48.158;11.816;2023-12-20T07:03:43;4.80;98.50
4635;DHT22;2330;48.158;11.816;2023-12-20T07:06:10;4.80;98.50
4635;DHT22;2330;48.158;11.816;2023-12-20T07:08:36;4.70;98.50
4635;DHT22;2330;48.158;11.816;2023-12-20T07:11:03;4.70;98.50
4635;DHT22;2330;48.158;11.816;2023-12-20T07:13:30;4.70;98.50
4635;DHT22;2330;48.158;11.816;2023-12-20T07:15:57;4.70;98.50
4635;DHT22;2330;48.158;11.816;2023-12-20T07:18:24;4.70;98.50
4635;DHT22;2330;48.158;11.816;2023-12-20T07:20:51;4.70;98.50
4635;DHT22;2330;48.158;11.816;2023-12-20T07:23:18;4.70;98.50
4635;DHT22;2330;48.158;11.816;2023-12-20T07:25:47;4.70;98.50
4635;DHT22;2330;48.158;11.816;2023-12-20T07:28:14;4.70;98.50
4635;DHT22;2330;48.158;11.816;2023-12-20T07:30:40;4.70;98.50
4635;DHT22;2330;48.158;11.816;2023-12-20T07:33:07;4.70;98.50
4635;DHT22;2330;48.158;11.816;2023-12-20T07:35:35;4.70;98.50
4635;DHT22;2330;48.158;11.816;2023-12-20T07:38:03;4.70;98.50
4635;DHT22;2330;48.158;11.816;2023-12-20T07:40:30;4.70;98.50
4635;DHT22;2330;48.158;11.816;2023-12-20T07:42:56;4.80;98.50
4635;DHT22;2330;48.158;11.816;2023-12-20T07:45:24;4.80;98.50
4635;DHT22;2330;48.158;11.816;2023-12-20T07:47:51;4.70;98.50
4635;DHT22;2330;48.158;11.816;2023-12-20T07:50:18;4.70;98.50
4635;DHT22;2330;48.158;11.816;2023-12-20T07:52:45;4.70;98.50
4635;DHT22;2330;48.158;11.816;2023-12-20T07:55:12;4.70;98.50
4635;DHT22;2330;48.158;11.816;2023-12-20T07:57:38;4.80;98.50
4635;DHT22;2330;48.158;11.816;2023-12-20T08:00:05;4.80;98.50
4635;DHT22;2330;48.158;11.816;2023-12-20T08:02:33;4.70;98.50
4635;DHT22;2330;48.158;11.816;2023-12-20T08:04:59;4.70;98.50
4635;DHT22;2330;48.158;11.816;2023-12-20T08:07:26;4.70;98.50
4635;DHT22;2330;48.158;11.816;2023-12-20T08:09:53;4.70;98.50
4635;DHT22;2330;48.158;11.816;2023-12-20T08:12:21;4.60;98.50
4635;DHT22;2330;48.158;11.816;2023-12-20T08:14:48;4.60;98.50
4635;DHT22;2330;48.158;11.816;2023-12-20T08:17:15;4.70;98.50
4635;DHT22;2330;48.158;11.816;2023-12-20T08:19:42;4.70;98.50
4635;DHT22;2330;48.158;11.816;2023-12-20T08:22:09;4.70;98.50
4635;DHT22;2330;48.158;11.816;2023-12-20T08:24:36;4.80;98.50
4635;DHT22;2330;48.158;11.816;2023-12-20T08:27:04;4.80;98.50
4635;DHT22;2330;48.158;11.816;2023-12-20T08:29:31;4.80;98.50
4635;DHT22;2330;48.158;11.816;2023-12-20T08:31:58;4.80;98.50
4635;DHT22;2330;48.158;11.816;2023-12-20T08:34:26;4.80;98.50
4635;DHT22;2330;48.158;11.816;2023-12-20T08:36:53;4.70;98.50
4635;DHT22;2330;48.158;11.816;2023-12-20T08:39:20;4.70;98.50
4635;DHT22;2330;48.158;11.816;2023-12-20T08:41:47;4.60;98.50
4635;DHT22;2330;48.158;11.816;2023-12-20T08:44:13;4.70;98.50
4635;DHT22;2330;48.158;11.816;2023-12-20T08:46:40;4.70;98.50
4635;DHT22;2330;48.158;11.816;2023-12-20T08:49:07;4.70;98.50
4635;DHT22;2330;48.158;11.816;2023-12-20T08:51:36;4.60;98.50
4635;DHT22;2330;48.158;11.816;2023-12-20T08:54:02;4.60;98.50
4635;DHT22;2330;48.158;11.816;2023-12-20T08:56:34;4.60;98.50
4635;DHT22;2330;48.158;11.816;2023-12-20T08:59:01;4.60;98.50
4635;DHT22;2330;48.158;11.816;2023-12-20T09:01:28;4.60;98.50
4635;DHT22;2330;48.158;11.816;2023-12-20T09:03:54;4.70;98.50
4635;DHT22;2330;48.158;11.816;2023-12-20T09:06:21;4.70;98.50
4635;DHT22;2330;48.158;11.816;2023-12-20T09:08:48;4.70;98.50
4635;DHT22;2330;48.158;11.816;2023-12-20T09:11:15;4.70;98.50
4635;DHT22;2330;48.158;11.816;2023-12-20T09:13:42;4.80;98.50
4635;DHT22;2330;48.158;11.816;2023-12-20T09:16:09;4.80;98.50
4635;DHT22;2330;48.158;11.816;2023-12-20T09:18:36;4.80;98.50
4635;DHT22;2330;48.158;11.816;2023-12-20T09:21:03;4.80;98.50
4635;DHT22;2330;48.158;11.816;2023-12-20T09:23:29;4.80;98.50
4635;DHT22;2330;48.158;11.816;2023-12-20T09:25:56;4.80;98.50
4635;DHT22;2330;48.158;11.816;2023-12-20T09:28:24;4.80;98.50
4635;DHT22;2330;48.158;11.816;2023-12-20T09:30:50;4.80;98.50
4635;DHT22;2330;48.158;11.816;2023-12-20T09:33:17;4.90;98.50
4635;DHT22;2330;48.158;11.816;2023-12-20T09:35:44;4.90;98.50
4635;DHT22;2330;48.158;11.816;2023-12-20T09:38:11;5.00;98.50
4635;DHT22;2330;48.158;11.816;2023-12-20T09:40:41;5.00;98.50
4635;DHT22;2330;48.158;11.816;2023-12-20T09:43:11;4.90;98.50
4635;DHT22;2330;48.158;11.816;2023-12-20T09:45:40;4.90;98.50
4635;DHT22;2330;48.158;11.816;2023-12-20T09:48:10;4.80;98.50
4635;DHT22;2330;48.158;11.816;2023-12-20T09:50:37;4.70;98.50
4635;DHT22;2330;48.158;11.816;2023-12-20T09:53:04;4.70;98.50
4635;DHT22;2330;48.158;11.816;2023-12-20T09:55:36;4.70;98.50
4635;DHT22;2330;48.158;11.816;2023-12-20T09:58:04;4.70;98.50
4635;DHT22;2330;48.158;11.816;2023-12-20T10:00:31;4.80;98.50
4635;DHT22;2330;48.158;11.816;2023-12-20T10:02:59;4.80;98.50
4635;DHT22;2330;48.158;11.816;2023-12-20T10:05:33;4.80;98.50
4635;DHT22;2330;48.158;11.816;2023-12-20T10:08:01;4.80;98.50
4635;DHT22;2330;48.158;11.816;2023-12-20T10:10:29;4.80;98.50
4635;DHT22;2330;48.158;11.816;2023-12-20T10:13:12;4.90;98.50
4635;DHT22;2330;48.158;11.816;2023-12-20T10:15:39;4.90;98.50
4635;DHT22;2330;48.158;11.816;2023-12-20T10:18:08;4.90;98.50
4635;DHT22;2330;48.158;11.816;2023-12-20T10:20:36;4.90;98.50
4635;DHT22;2330;48.158;11.816;2023-12-20T10:23:03;4.90;98.50
4635;DHT22;2330;48.158;11.816;2023-12-20T10:25:30;5.00;98.50
4635;DHT22;2330;48.158;11.816;2023-12-20T10:28:10;5.00;98.50
4635;DHT22;2330;48.158;11.816;2023-12-20T10:30:39;5.10;98.50
4635;DHT22;2330;48.158;11.816;2023-12-20T10:33:07;5.10;98.50
4635;DHT22;2330;48.158;11.816;2023-12-20T10:35:35;5.10;98.50
4635;DHT22;2330;48.158;11.816;2023-12-20T10:38:06;5.10;98.50
4635;DHT22;2330;48.158;11.816;2023-12-20T10:40:36;5.10;98.50
4635;DHT22;2330;48.158;11.816;2023-12-20T10:43:04;5.10;98.50
4635;DHT22;2330;48.158;11.816;2023-12-20T10:45:34;5.20;98.50
4635;DHT22;2330;48.158;11.816;2023-12-20T10:48:01;5.20;98.50
4635;DHT22;2330;48.158;11.816;2023-12-20T10:50:29;5.20;98.50
4635;DHT22;2330;48.158;11.816;2023-12-20T10:52:58;5.30;98.50
4635;DHT22;2330;48.158;11.816;2023-12-20T10:55:26;5.30;98.50
4635;DHT22;2330;48.158;11.816;2023-12-20T10:58:13;5.20;98.50
4635;DHT22;2330;48.158;11.816;2023-12-20T11:00:41;5.20;98.50
4635;DHT22;2330;48.158;11.816;2023-12-20T11:03:11;5.30;98.50
4635;DHT22;2330;48.158;11.816;2023-12-20T11:05:50;5.30;98.50
4635;DHT22;2330;48.158;11.816;2023-12-20T11:08:33;5.30;98.50
4635;DHT22;2330;48.158;11.816;2023-12-20T11:14:00;5.40;98.50
4635;DHT22;2330;48.158;11.816;2023-12-20T11:16:27;5.40;98.50
4635;DHT22;2330;48.158;11.816;2023-12-20T11:19:07;5.40;98.50
4635;DHT22;2330;48.158;11.816;2023-12-20T11:21:34;5.40;98.50
4635;DHT22;2330;48.158;11.816;2023-12-20T11:24:02;5.40;98.50
4635;DHT22;2330;48.158;11.816;2023-12-20T11:26:30;5.40;98.50
4635;DHT22;2330;48.158;11.816;2023-12-20T11:29:29;5.40;98.50
4635;DHT22;2330;48.158;11.816;2023-12-20T11:31:55;5.40;98.50
4635;DHT22;2330;48.158;11.816;2023-12-20T11:34:27;5.40;98.50
4635;DHT22;2330;48.158;11.816;2023-12-20T11:36:58;5.40;98.50
4635;DHT22;2330;48.158;11.816;2023-12-20T11:39:27;5.40;98.50
4635;DHT22;2330;48.158;11.816;2023-12-20T11:41:57;5.50;98.50
4635;DHT22;2330;48.158;11.816;2023-12-20T11:44:25;5.50;98.50
4635;DHT22;2330;48.158;11.816;2023-12-20T11:46:54;5.50;98.50
4635;DHT22;2330;48.158;11.816;2023-12-20T11:49:23;5.50;98.50
4635;DHT22;2330;48.158;11.816;2023-12-20T11:51:51;5.60;98.50
4635;DHT22;2330;48.158;11.816;2023-12-20T11:54:18;5.60;98.50
4635;DHT22;2330;48.158;11.816;2023-12-20T11:56:45;5.60;98.50
4635;DHT22;2330;48.158;11.816;2023-12-20T11:59:13;5.60;98.50
4635;DHT22;2330;48.158;11.816;2023-12-20T12:01:50;5.70;98.50
4635;DHT22;2330;48.158;11.816;2023-12-20T12:04:17;5.70;98.50
4635;DHT22;2330;48.158;11.816;2023-12-20T12:06:45;5.80;98.50
4635;DHT22;2330;48.158;11.816;2023-12-20T12:09:13;5.80;98.50
4635;DHT22;2330;48.158;11.816;2023-12-20T12:11:39;5.80;98.50
4635;DHT22;2330;48.158;11.816;2023-12-20T12:14:07;5.80;98.50
4635;DHT22;2330;48.158;11.816;2023-12-20T12:16:34;5.80;98.50
4635;DHT22;2330;48.158;11.816;2023-12-20T12:19:01;5.90;98.50
4635;DHT22;2330;48.158;11.816;2023-12-20T12:21:28;5.90;98.50
4635;DHT22;2330;48.158;11.816;2023-12-20T12:24:09;5.90;98.50
4635;DHT22;2330;48.158;11.816;2023-12-20T12:26:36;5.90;98.50
4635;DHT22;2330;48.158;11.816;2023-12-20T12:29:03;6.00;98.50
4635;DHT22;2330;48.158;11.816;2023-12-20T12:31:30;6.00;98.50
4635;DHT22;2330;48.158;11.816;2023-12-20T12:33:57;6.00;98.50
4635;DHT22;2330;48.158;11.816;2023-12-20T12:36:24;6.00;98.50
4635;DHT22;2330;48.158;11.816;2023-12-20T12:38:51;5.90;98.50
4635;DHT22;2330;48.158;11.816;2023-12-20T12:41:19;5.90;98.50
4635;DHT22;2330;48.158;11.816;2023-12-20T12:43:46;5.90;98.50
4635;DHT22;2330;48.158;11.816;2023-12-20T12:46:13;5.80;98.50
4635;DHT22;2330;48.158;11.816;2023-12-20T12:48:40;5.70;98.50
4635;DHT22;2330;48.158;11.816;2023-12-20T12:51:10;5.70;98.50
4635;DHT22;2330;48.158;11.816;2023-12-20T12:53:40;5.70;98.50
4635;DHT22;2330;48.158;11.816;2023-12-20T12:56:07;5.60;98.50
4635;DHT22;2330;48.158;11.816;2023-12-20T12:58:34;5.60;98.50
4635;DHT22;2330;48.158;11.816;2023-12-20T13:01:01;5.70;98.50
4635;DHT22;2330;48.158;11.816;2023-12-20T13:03:30;5.70;98.50
4635;DHT22;2330;48.158;11.816;2023-12-20T13:05:57;5.70;98.50
4635;DHT22;2330;48.158;11.816;2023-12-20T13:08:24;5.70;98.50
4635;DHT22;2330;48.158;11.816;2023-12-20T13:10:51;5.70;98.50
4635;DHT22;2330;48.158;11.816;2023-12-20T13:13:18;5.70;98.50
4635;DHT22;2330;48.158;11.816;2023-12-20T13:15:45;5.70;98.50
4635;DHT22;2330;48.158;11.816;2023-12-20T13:18:19;5.60;98.50
4635;DHT22;2330;48.158;11.816;2023-12-20T13:20:46;5.40;98.50
4635;DHT22;2330;48.158;11.816;2023-12-20T13:23:13;5.20;98.50
4635;DHT22;2330;48.158;11.816;2023-12-20T13:25:43;5.10;98.50
4635;DHT22;2330;48.158;11.816;2023-12-20T13:28:12;5.10;98.50
4635;DHT22;2330;48.158;11.816;2023-12-20T13:30:39;4.90;98.50
4635;DHT22;2330;48.158;11.816;2023-12-20T13:33:06;4.80;98.50
4635;DHT22;2330;48.158;11.816;2023-12-20T13:35:34;4.60;98.50
4635;DHT22;2330;48.158;11.816;2023-12-20T13:38:01;4.50;98.50
4635;DHT22;2330;48.158;11.816;2023-12-20T13:40:28;4.50;98.50
4635;DHT22;2330;48.158;11.816;2023-12-20T13:42:55;4.50;98.50
4635;DHT22;2330;48.158;11.816;2023-12-20T13:45:22;4.50;98.50
4635;DHT22;2330;48.158;11.816;2023-12-20T13:47:49;4.40;98.50
4635;DHT22;2330;48.158;11.816;2023-12-20T13:50:16;4.40;98.50
4635;DHT22;2330;48.158;11.816;2023-12-20T13:52:43;4.40;98.50
4635;DHT22;2330;48.158;11.816;2023-12-20T13:55:10;4.40;98.50
4635;DHT22;2330;48.158;11.816;2023-12-20T13:57:37;4.30;98.50
4635;DHT22;2330;48.158;11.816;2023-12-20T14:00:20;4.40;98.50
4635;DHT22;2330;48.158;11.816;2023-12-20T14:02:47;4.40;98.50
4635;DHT22;2330;48.158;11.816;2023-12-20T14:05:14;4.40;98.50
4635;DHT22;2330;48.158;11.816;2023-12-20T14:07:44;4.40;98.50
4635;DHT22;2330;48.158;11.816;2023-12-20T14:10:13;4.40;98.50
4635;DHT22;2330;48.158;11.816;2023-12-20T14:12:40;4.40;98.50
4635;DHT22;2330;48.158;11.816;2023-12-20T14:15:07;4.40;98.50
4635;DHT22;2330;48.158;11.816;2023-12-20T14:17:38;4.40;98.50
4635;DHT22;2330;48.158;11.816;2023-12-20T14:20:06;4.40;98.50
4635;DHT22;2330;48.158;11.816;2023-12-20T14:22:34;4.40;98.50
4635;DHT22;2330;48.158;11.816;2023-12-20T14:25:02;4.40;98.50
4635;DHT22;2330;48.158;11.816;2023-12-20T14:27:29;4.40;98.50
4635;DHT22;2330;48.158;11.816;2023-12-20T14:29:56;4.40;98.50
4635;DHT22;2330;48.158;11.816;2023-12-20T14:32:24;4.30;98.50
4635;DHT22;2330;48.158;11.816;2023-12-20T14:34:53;4.30;98.50
4635;DHT22;2330;48.158;11.816;2023-12-20T14:37:21;4.30;98.50
4635;DHT22;2330;48.158;11.816;2023-12-20T14:39:49;4.30;98.50
4635;DHT22;2330;48.158;11.816;2023-12-20T14:42:16;4.30;98.50
4635;DHT22;2330;48.158;11.816;2023-12-20T14:44:43;4.40;98.50
4635;DHT22;2330;48.158;11.816;2023-12-20T14:47:10;4.30;98.50
4635;DHT22;2330;48.158;11.816;2023-12-20T14:49:40;4.30;98.50
4635;DHT22;2330;48.158;11.816;2023-12-20T14:52:08;4.30;98.50
4635;DHT22;2330;48.158;11.816;2023-12-20T14:54:38;4.30;98.50
4635;DHT22;2330;48.158;11.816;2023-12-20T14:57:05;4.30;98.50
4635;DHT22;2330;48.158;11.816;2023-12-20T14:59:32;4.30;98.50
4635;DHT22;2330;48.158;11.816;2023-12-20T15:01:59;4.30;98.50
4635;DHT22;2330;48.158;11.816;2023-12-20T15:04:26;4.30;98.50
4635;DHT22;2330;48.158;11.816;2023-12-20T15:06:55;4.30;98.50
4635;DHT22;2330;48.158;11.816;2023-12-20T15:09:22;4.30;98.50
4635;DHT22;2330;48.158;11.816;2023-12-20T15:11:50;4.30;98.50
4635;DHT22;2330;48.158;11.816;2023-12-20T15:14:17;4.30;98.50
4635;DHT22;2330;48.158;11.816;2023-12-20T15:16:46;4.20;98.50
4635;DHT22;2330;48.158;11.816;2023-12-20T15:19:16;4.20;98.50
4635;DHT22;2330;48.158;11.816;2023-12-20T15:21:43;4.20;98.50
4635;DHT22;2330;48.158;11.816;2023-12-20T15:24:14;4.20;98.50
4635;DHT22;2330;48.158;11.816;2023-12-20T15:26:46;4.20;98.50
4635;DHT22;2330;48.158;11.816;2023-12-20T15:29:13;4.20;98.50
4635;DHT22;2330;48.158;11.816;2023-12-20T15:31:46;4.10;98.50
4635;DHT22;2330;48.158;11.816;2023-12-20T15:34:13;4.10;98.50
4635;DHT22;2330;48.158;11.816;2023-12-20T15:36:42;4.10;98.50
4635;DHT22;2330;48.158;11.816;2023-12-20T15:39:09;4.10;98.50
4635;DHT22;2330;48.158;11.816;2023-12-20T15:41:36;4.10;98.50
4635;DHT22;2330;48.158;11.816;2023-12-20T15:44:03;4.10;98.50
4635;DHT22;2330;48.158;11.816;2023-12-20T15:46:30;4.10;98.50
4635;DHT22;2330;48.158;11.816;2023-12-20T15:48:56;4.20;98.50
4635;DHT22;2330;48.158;11.816;2023-12-20T15:51:24;4.20;98.50
4635;DHT22;2330;48.158;11.816;2023-12-20T15:53:51;4.10;98.50
4635;DHT22;2330;48.158;11.816;2023-12-20T15:56:18;4.10;98.50
4635;DHT22;2330;48.158;11.816;2023-12-20T15:58:45;4.10;98.50
4635;DHT22;2330;48.158;11.816;2023-12-20T16:01:14;4.10;98.50
4635;DHT22;2330;48.158;11.816;2023-12-20T16:03:41;4.10;98.50
4635;DHT22;2330;48.158;11.816;2023-12-20T16:06:19;4.00;98.50
4635;DHT22;2330;48.158;11.816;2023-12-20T16:08:48;4.00;98.50